Aviation Digital Data Service (ADDS)

Output produced by TAFs form (0100 UTC 28 August 2014)
found at http://www.aviationweather.gov/adds/tafs/
 
KABE 272320Z 2800/2824 25006KT P6SM SCT050 
     FM280300 30004KT P6SM BKN050 
     FM280600 33006KT P6SM SCT050 
     FM281400 31009G17KT P6SM FEW040